Hlavní strana
METAR-TAF:

METAR-TAF

Letiště :

Letiště Teherán-Mehrabád

Teherán, Írán

zeměpisná šířka: 35-41N, zeměpisná délka: 051-21E, výška: 1204 m

Aktuální stav počasí

Zpráva byla vytvořena před 36 minutami, v 04:30 UTC
Bezvětří
Teplota 8°C
Vlhkost vzduchu 81%
Tlak 1023 hPa
Viditelnost: 1700 m
kouřmo

METAR: OIII 170430Z 00000KT 5000 1700SE BR NSC 08/05 Q1023 A3022

Čas: 08:36 (05:06 UTC)

Předpověď počasí

Zpráva byla vytvořena před 5 hodinami a 56 minutami, v 23:10 UTC
Předpověď platná od 17 v 00 UTC do 18 v 06 UTC
Severozápadní vítr 8 kt
Viditelnost: 4000 m
kouřmo
Změna
od 17 v 04 UTC do 17 v 06 UTC
Viditelnost: 7000 m
Dočasný
od 17 v 10 UTC do 17 v 14 UTC
Severozápadní vítr 14 kt

TAF: OIII 162310Z 1700/1806 31004MPS 4000 BR NSC BECMG 1704/1706 7000 NSC TEMPO 1710/1714 31007MPS

Stav a předpovědi počasí z více než 4 000 letišť (zprávy METAR a TAF).

Červené a žluté tečky na mapě představují dostupné meteorologické stanice.

Když kurzor umístíte na tečku, zobrazí se název stanice.

Pak kliknutím zobrazíte stav a předpověď počasí.

Chcete-li změnit mapu, kliknutím na zelené tlačítko se znaménkem +mapu přiblížíte, kliknutím na zelené tlačítko se znaménkem – mapu oddálíte a kliknutím na zelené šipky přejdete na sousední mapy.


METAR-TAF: